sensor_id;sensor_type;location;lat;lon;timestamp;pressure;altitude;pressure_sealevel;temperature;humidity
6853;BME280;3465;42.144;24.722;2023-11-21T00:01:52;48516.09;;;-141.38;73.12
6853;BME280;3465;42.144;24.722;2023-11-21T00:04:17;48490.72;;;-141.38;73.35
6853;BME280;3465;42.144;24.722;2023-11-21T00:06:43;48520.00;;;-141.38;72.99
6853;BME280;3465;42.144;24.722;2023-11-21T00:09:11;48506.31;;;-141.38;72.96
6853;BME280;3465;42.144;24.722;2023-11-21T00:11:38;48514.13;;;-141.38;72.89
6853;BME280;3465;42.144;24.722;2023-11-21T00:14:03;48506.31;;;-141.38;73.04
6853;BME280;3465;42.144;24.722;2023-11-21T00:16:29;48510.22;;;-141.38;73.02
6853;BME280;3465;42.144;24.722;2023-11-21T00:18:54;48494.63;;;-141.38;72.88
6853;BME280;3465;42.144;24.722;2023-11-21T00:21:20;48494.63;;;-141.38;72.42
6853;BME280;3465;42.144;24.722;2023-11-21T00:23:45;48512.19;;;-141.38;72.21
6853;BME280;3465;42.144;24.722;2023-11-21T00:26:11;48504.38;;;-141.38;71.99
6853;BME280;3465;42.144;24.722;2023-11-21T00:28:36;48463.38;;;-141.38;71.73
6853;BME280;3465;42.144;24.722;2023-11-21T00:31:02;48479.00;;;-141.38;71.63
6853;BME280;3465;42.144;24.722;2023-11-21T00:33:27;48512.19;;;-141.38;72.11
6853;BME280;3465;42.144;24.722;2023-11-21T00:35:52;48502.44;;;-141.38;72.43
6853;BME280;3465;42.144;24.722;2023-11-21T00:38:18;48500.47;;;-141.38;72.46
6853;BME280;3465;42.144;24.722;2023-11-21T00:40:45;48520.00;;;-141.38;72.64
6853;BME280;3465;42.144;24.722;2023-11-21T00:43:11;48508.28;;;-141.38;72.86
6853;BME280;3465;42.144;24.722;2023-11-21T00:45:36;48496.56;;;-141.38;73.17
6853;BME280;3465;42.144;24.722;2023-11-21T00:48:02;48531.69;;;-141.38;74.13
6853;BME280;3465;42.144;24.722;2023-11-21T00:50:30;48559.03;;;-141.38;74.30
6853;BME280;3465;42.144;24.722;2023-11-21T00:52:55;48555.13;;;-141.38;74.69
6853;BME280;3465;42.144;24.722;2023-11-21T00:55:21;48549.25;;;-141.38;75.08
6853;BME280;3465;42.144;24.722;2023-11-21T00:57:47;48560.97;;;-141.38;75.61
6853;BME280;3465;42.144;24.722;2023-11-21T01:00:13;48566.81;;;-141.38;76.05
6853;BME280;3465;42.144;24.722;2023-11-21T01:02:43;48578.53;;;-141.38;76.22
6853;BME280;3465;42.144;24.722;2023-11-21T01:05:13;48580.50;;;-141.38;76.63
6853;BME280;3465;42.144;24.722;2023-11-21T01:07:38;48572.69;;;-141.38;76.51
6853;BME280;3465;42.144;24.722;2023-11-21T01:10:04;48594.16;;;-141.38;76.70
6853;BME280;3465;42.144;24.722;2023-11-21T01:12:34;48594.16;;;-141.38;76.98
6853;BME280;3465;42.144;24.722;2023-11-21T01:14:59;48562.94;;;-141.38;77.75
6853;BME280;3465;42.144;24.722;2023-11-21T01:17:26;48635.13;;;-141.38;78.03
6853;BME280;3465;42.144;24.722;2023-11-21T01:19:51;48644.91;;;-141.38;78.43
6853;BME280;3465;42.144;24.722;2023-11-21T01:22:17;48683.94;;;-141.38;78.57
6853;BME280;3465;42.144;24.722;2023-11-21T01:24:47;48676.13;;;-141.38;78.84
6853;BME280;3465;42.144;24.722;2023-11-21T01:27:12;48672.22;;;-141.38;78.84
6853;BME280;3465;42.144;24.722;2023-11-21T01:29:38;48697.59;;;-141.38;79.20
6853;BME280;3465;42.144;24.722;2023-11-21T01:32:04;48705.41;;;-141.38;79.47
6853;BME280;3465;42.144;24.722;2023-11-21T01:34:29;48724.91;;;-141.38;79.73
6853;BME280;3465;42.144;24.722;2023-11-21T01:36:56;48758.09;;;-141.38;80.17
6853;BME280;3465;42.144;24.722;2023-11-21T01:39:21;48756.13;;;-141.38;80.55
6853;BME280;3465;42.144;24.722;2023-11-21T01:41:50;48762.00;;;-141.38;80.76
6853;BME280;3465;42.144;24.722;2023-11-21T01:44:17;48771.75;;;-141.38;80.90
6853;BME280;3465;42.144;24.722;2023-11-21T01:46:45;48783.47;;;-141.38;81.08
6853;BME280;3465;42.144;24.722;2023-11-21T01:49:12;48804.94;;;-141.38;81.27
6853;BME280;3465;42.144;24.722;2023-11-21T01:51:40;48851.78;;;-141.38;81.52
6853;BME280;3465;42.144;24.722;2023-11-21T01:54:06;48849.81;;;-141.38;81.89
6853;BME280;3465;42.144;24.722;2023-11-21T01:56:32;48832.25;;;-141.38;81.77
6853;BME280;3465;42.144;24.722;2023-11-21T01:58:57;48883.00;;;-141.38;81.94
6853;BME280;3465;42.144;24.722;2023-11-21T02:01:23;48867.41;;;-141.38;81.94
6853;BME280;3465;42.144;24.722;2023-11-21T02:03:49;48900.56;;;-141.38;82.08
6853;BME280;3465;42.144;24.722;2023-11-21T02:06:14;48906.44;;;-141.38;82.01
6853;BME280;3465;42.144;24.722;2023-11-21T02:08:40;48922.03;;;-141.38;82.10
6853;BME280;3465;42.144;24.722;2023-11-21T02:11:07;48916.19;;;-141.38;82.16
6853;BME280;3465;42.144;24.722;2023-11-21T02:13:34;48925.94;;;-141.38;82.79
6853;BME280;3465;42.144;24.722;2023-11-21T02:16:00;48964.97;;;-141.38;83.29
6853;BME280;3465;42.144;24.722;2023-11-21T02:18:26;48984.50;;;-141.38;84.36
6853;BME280;3465;42.144;24.722;2023-11-21T02:20:55;49029.41;;;-141.38;84.73
6853;BME280;3465;42.144;24.722;2023-11-21T02:23:20;49062.59;;;-141.38;84.82
6853;BME280;3465;42.144;24.722;2023-11-21T02:25:46;49050.88;;;-141.38;84.58
6853;BME280;3465;42.144;24.722;2023-11-21T02:28:12;49097.72;;;-141.38;84.69
6853;BME280;3465;42.144;24.722;2023-11-21T02:30:40;49072.34;;;-141.38;84.88
6853;BME280;3465;42.144;24.722;2023-11-21T02:33:06;49078.19;;;-141.38;84.93
6853;BME280;3465;42.144;24.722;2023-11-21T02:35:32;49111.38;;;-141.38;84.97
6853;BME280;3465;42.144;24.722;2023-11-21T02:37:57;49093.81;;;-141.38;84.99
6853;BME280;3465;42.144;24.722;2023-11-21T02:40:23;49134.81;;;-141.38;85.24
6853;BME280;3465;42.144;24.722;2023-11-21T02:42:50;49156.28;;;-141.38;85.18
6853;BME280;3465;42.144;24.722;2023-11-21T02:45:21;49132.84;;;-141.38;85.14
6853;BME280;3465;42.144;24.722;2023-11-21T02:47:46;49136.75;;;-141.38;85.44
6853;BME280;3465;42.144;24.722;2023-11-21T02:50:13;49185.56;;;-141.38;86.02
6853;BME280;3465;42.144;24.722;2023-11-21T02:52:39;49226.53;;;-141.38;86.44
6853;BME280;3465;42.144;24.722;2023-11-21T02:55:08;49242.16;;;-141.38;86.71
6853;BME280;3465;42.144;24.722;2023-11-21T02:57:33;49294.88;;;-141.38;86.75
6853;BME280;3465;42.144;24.722;2023-11-21T02:59:59;49275.34;;;-141.38;86.77
6853;BME280;3465;42.144;24.722;2023-11-21T03:02:25;49316.34;;;-141.38;86.71
6853;BME280;3465;42.144;24.722;2023-11-21T03:04:51;49310.47;;;-141.38;86.80
6853;BME280;3465;42.144;24.722;2023-11-21T03:07:16;49304.63;;;-141.38;86.92
6853;BME280;3465;42.144;24.722;2023-11-21T03:09:45;49359.28;;;-141.38;87.61
6853;BME280;3465;42.144;24.722;2023-11-21T03:12:11;49388.56;;;-141.38;88.06
6853;BME280;3465;42.144;24.722;2023-11-21T03:14:38;49417.84;;;-141.38;88.30
6853;BME280;3465;42.144;24.722;2023-11-21T03:17:03;49470.56;;;-141.38;88.65
6853;BME280;3465;42.144;24.722;2023-11-21T03:19:30;49519.38;;;-141.38;88.72
6853;BME280;3465;42.144;24.722;2023-11-21T03:21:56;49546.69;;;-141.38;89.03
6853;BME280;3465;42.144;24.722;2023-11-21T03:24:22;49554.50;;;-141.38;89.29
6853;BME280;3465;42.144;24.722;2023-11-21T03:26:48;49613.06;;;-141.38;89.43
6853;BME280;3465;42.144;24.722;2023-11-21T03:29:14;49566.22;;;-141.38;89.09
6853;BME280;3465;42.144;24.722;2023-11-21T03:31:40;49581.84;;;-141.38;89.16
6853;BME280;3465;42.144;24.722;2023-11-21T03:34:06;49663.81;;;-141.38;89.52
6853;BME280;3465;42.144;24.722;2023-11-21T03:36:31;49706.78;;;-141.38;90.22
6853;BME280;3465;42.144;24.722;2023-11-21T03:38:57;49751.69;;;-141.38;90.50
6853;BME280;3465;42.144;24.722;2023-11-21T03:41:22;49743.88;;;-141.38;90.33
6853;BME280;3465;42.144;24.722;2023-11-21T03:43:48;49757.53;;;-141.38;90.13
6853;BME280;3465;42.144;24.722;2023-11-21T03:46:13;49761.44;;;-141.38;90.20
6853;BME280;3465;42.144;24.722;2023-11-21T03:48:39;49777.06;;;-141.38;90.27
6853;BME280;3465;42.144;24.722;2023-11-21T03:51:05;49851.25;;;-141.38;91.15
6853;BME280;3465;42.144;24.722;2023-11-21T03:53:31;49917.63;;;-141.38;91.52
6853;BME280;3465;42.144;24.722;2023-11-21T03:55:57;49948.88;;;-141.38;91.58
6853;BME280;3465;42.144;24.722;2023-11-21T03:58:23;49968.41;;;-141.38;91.46
6853;BME280;3465;42.144;24.722;2023-11-21T04:00:48;49939.09;;;-141.38;91.35
6853;BME280;3465;42.144;24.722;2023-11-21T04:03:16;49919.59;;;-141.38;90.92
6853;BME280;3465;42.144;24.722;2023-11-21T04:05:42;49937.16;;;-141.38;91.24
6853;BME280;3465;42.144;24.722;2023-11-21T04:08:07;49995.72;;;-141.38;91.43
6853;BME280;3465;42.144;24.722;2023-11-21T04:10:33;49966.44;;;-141.38;91.39
6853;BME280;3465;42.144;24.722;2023-11-21T04:12:58;50046.50;;;-141.38;91.66
6853;BME280;3465;42.144;24.722;2023-11-21T04:15:25;50075.78;;;-141.38;92.13
6853;BME280;3465;42.144;24.722;2023-11-21T04:17:51;50108.97;;;-141.38;92.34
6853;BME280;3465;42.144;24.722;2023-11-21T04:20:16;50173.41;;;-141.38;92.81
6853;BME280;3465;42.144;24.722;2023-11-21T04:22:44;50230.03;;;-141.38;93.02
6853;BME280;3465;42.144;24.722;2023-11-21T04:25:15;50171.44;;;-141.38;92.79
6853;BME280;3465;42.144;24.722;2023-11-21T04:27:41;50233.94;;;-141.38;93.02
6853;BME280;3465;42.144;24.722;2023-11-21T04:30:09;50237.84;;;-141.38;93.36
6853;BME280;3465;42.144;24.722;2023-11-21T04:32:35;50296.41;;;-141.38;93.19
6853;BME280;3465;42.144;24.722;2023-11-21T04:35:01;50284.69;;;-141.38;93.39
6853;BME280;3465;42.144;24.722;2023-11-21T04:37:27;50325.72;;;-141.38;93.44
6853;BME280;3465;42.144;24.722;2023-11-21T04:39:52;50405.78;;;-141.38;94.17
6853;BME280;3465;42.144;24.722;2023-11-21T04:42:18;50542.47;;;-141.38;94.91
6853;BME280;3465;42.144;24.722;2023-11-21T04:44:43;50640.09;;;-141.38;95.36
6853;BME280;3465;42.144;24.722;2023-11-21T04:47:10;50726.03;;;-141.38;95.82
6853;BME280;3465;42.144;24.722;2023-11-21T04:49:36;50747.50;;;-141.38;95.83
6853;BME280;3465;42.144;24.722;2023-11-21T04:52:01;50770.94;;;-141.38;95.92
6853;BME280;3465;42.144;24.722;2023-11-21T04:54:30;50804.16;;;-141.38;95.84
6853;BME280;3465;42.144;24.722;2023-11-21T04:56:55;50749.47;;;-141.38;95.61
6853;BME280;3465;42.144;24.722;2023-11-21T04:59:21;50776.81;;;-141.38;95.72
6853;BME280;3465;42.144;24.722;2023-11-21T05:01:50;50919.38;;;-141.38;96.37
6853;BME280;3465;42.144;24.722;2023-11-21T05:04:15;51022.88;;;-141.38;97.25
6853;BME280;3465;42.144;24.722;2023-11-21T05:06:40;51267.03;;;-141.38;98.22
6853;BME280;3465;42.144;24.722;2023-11-21T05:09:06;51493.59;;;-141.38;99.09
6853;BME280;3465;42.144;24.722;2023-11-21T05:11:36;51710.44;;;-141.38;99.83
6853;BME280;3465;42.144;24.722;2023-11-21T05:14:02;51860.84;;;-141.38;100.00
6853;BME280;3465;42.144;24.722;2023-11-21T05:16:29;52009.31;;;-141.38;100.00
6853;BME280;3465;42.144;24.722;2023-11-21T05:18:54;52015.19;;;-141.38;100.00
6853;BME280;3465;42.144;24.722;2023-11-21T05:21:26;52316.06;;;-141.38;100.00
6853;BME280;3465;42.144;24.722;2023-11-21T05:23:51;52810.41;;;-141.38;100.00
6853;BME280;3465;42.144;24.722;2023-11-21T05:26:17;53125.03;;;-141.38;100.00
6853;BME280;3465;42.144;24.722;2023-11-21T05:28:42;53359.53;;;-141.38;100.00
6853;BME280;3465;42.144;24.722;2023-11-21T05:31:07;53254.00;;;-141.38;100.00
6853;BME280;3465;42.144;24.722;2023-11-21T05:33:33;53072.25;;;-141.38;100.00
6853;BME280;3465;42.144;24.722;2023-11-21T05:35:58;52982.34;;;-141.38;100.00
6853;BME280;3465;42.144;24.722;2023-11-21T05:38:24;53035.13;;;-141.38;100.00
6853;BME280;3465;42.144;24.722;2023-11-21T05:40:49;52884.66;;;-141.38;100.00
6853;BME280;3465;42.144;24.722;2023-11-21T05:43:15;52699.00;;;-141.38;100.00
6853;BME280;3465;42.144;24.722;2023-11-21T05:45:40;52646.25;;;-141.38;100.00
6853;BME280;3465;42.144;24.722;2023-11-21T05:48:06;52308.22;;;-141.38;100.00
6853;BME280;3465;42.144;24.722;2023-11-21T05:50:31;52069.88;;;-141.38;100.00
6853;BME280;3465;42.144;24.722;2023-11-21T05:52:57;51913.59;;;-141.38;100.00
6853;BME280;3465;42.144;24.722;2023-11-21T05:55:25;51679.16;;;-141.38;99.29
6853;BME280;3465;42.144;24.722;2023-11-21T05:57:51;51565.88;;;-141.38;98.94
6853;BME280;3465;42.144;24.722;2023-11-21T06:00:16;51446.72;;;-141.38;98.42
6853;BME280;3465;42.144;24.722;2023-11-21T06:02:51;51323.66;;;-141.38;97.99
6853;BME280;3465;42.144;24.722;2023-11-21T06:05:19;51270.94;;;-141.38;97.67
6853;BME280;3465;42.144;24.722;2023-11-21T06:07:46;51132.25;;;-141.38;97.01
6853;BME280;3465;42.144;24.722;2023-11-21T06:10:12;51089.28;;;-141.38;96.78
6853;BME280;3465;42.144;24.722;2023-11-21T06:12:39;51020.94;;;-141.38;96.63
6853;BME280;3465;42.144;24.722;2023-11-21T06:15:06;51028.75;;;-141.38;96.52
6853;BME280;3465;42.144;24.722;2023-11-21T06:17:34;50933.03;;;-141.38;96.13
6853;BME280;3465;42.144;24.722;2023-11-21T06:20:05;50890.06;;;-141.38;95.62
6853;BME280;3465;42.144;24.722;2023-11-21T06:22:46;50770.94;;;-141.38;94.52
6853;BME280;3465;42.144;24.722;2023-11-21T06:25:13;50599.09;;;-141.38;92.83
6853;BME280;3465;42.144;24.722;2023-11-21T06:27:43;50464.34;;;-141.38;91.90
6853;BME280;3465;42.144;24.722;2023-11-21T06:30:13;50442.88;;;-141.38;91.50
6853;BME280;3465;42.144;24.722;2023-11-21T06:32:40;50345.22;;;-141.38;90.37
6853;BME280;3465;42.144;24.722;2023-11-21T06:35:07;50265.19;;;-141.38;89.08
6853;BME280;3465;42.144;24.722;2023-11-21T06:37:33;50165.59;;;-141.38;87.82
6853;BME280;3465;42.144;24.722;2023-11-21T06:40:00;50066.00;;;-141.38;86.66
6853;BME280;3465;42.144;24.722;2023-11-21T06:42:26;50007.44;;;-141.38;85.16
6853;BME280;3465;42.144;24.722;2023-11-21T06:44:52;49917.63;;;-141.38;83.13
6853;BME280;3465;42.144;24.722;2023-11-21T06:47:19;49837.59;;;-141.38;81.57
6853;BME280;3465;42.144;24.722;2023-11-21T06:49:47;49773.16;;;-141.38;80.33
6853;BME280;3465;42.144;24.722;2023-11-21T06:52:16;49745.81;;;-141.38;80.31
6853;BME280;3465;42.144;24.722;2023-11-21T06:54:41;49702.88;;;-141.38;80.32
6853;BME280;3465;42.144;24.722;2023-11-21T06:57:07;49675.53;;;-141.38;78.64
6853;BME280;3465;42.144;24.722;2023-11-21T06:59:33;49616.97;;;-141.38;78.06
6853;BME280;3465;42.144;24.722;2023-11-21T07:01:58;49609.16;;;-141.38;77.18
6853;BME280;3465;42.144;24.722;2023-11-21T07:04:24;49583.78;;;-141.38;75.11
6853;BME280;3465;42.144;24.722;2023-11-21T07:06:51;49517.41;;;-141.38;71.95
6853;BME280;3465;42.144;24.722;2023-11-21T07:09:16;49408.09;;;-141.38;67.28
6853;BME280;3465;42.144;24.722;2023-11-21T07:11:42;49281.19;;;-141.38;66.05
6853;BME280;3465;42.144;24.722;2023-11-21T07:14:07;49269.50;;;-141.38;66.09
6853;BME280;3465;42.144;24.722;2023-11-21T07:16:37;49189.47;;;-141.38;67.09
6853;BME280;3465;42.144;24.722;2023-11-21T07:19:06;49207.03;;;-141.38;68.54
6853;BME280;3465;42.144;24.722;2023-11-21T07:21:35;49177.75;;;-141.38;69.20
6853;BME280;3465;42.144;24.722;2023-11-21T07:24:04;49173.84;;;-141.38;70.41
6853;BME280;3465;42.144;24.722;2023-11-21T07:26:31;49179.69;;;-141.38;70.94
6853;BME280;3465;42.144;24.722;2023-11-21T07:28:57;49167.97;;;-141.38;71.22
6853;BME280;3465;42.144;24.722;2023-11-21T07:31:23;49134.81;;;-141.38;71.00
6853;BME280;3465;42.144;24.722;2023-11-21T07:33:49;49199.22;;;-141.38;70.90
6853;BME280;3465;42.144;24.722;2023-11-21T07:36:16;49212.88;;;-141.38;70.57
6853;BME280;3465;42.144;24.722;2023-11-21T07:38:43;49210.94;;;-141.38;69.86
6853;BME280;3465;42.144;24.722;2023-11-21T07:41:09;49191.41;;;-141.38;69.91
6853;BME280;3465;42.144;24.722;2023-11-21T07:43:35;49197.25;;;-141.38;70.31
6853;BME280;3465;42.144;24.722;2023-11-21T07:46:01;49177.75;;;-141.38;70.63
6853;BME280;3465;42.144;24.722;2023-11-21T07:48:31;49197.25;;;-141.38;71.36
6853;BME280;3465;42.144;24.722;2023-11-21T07:50:57;49171.88;;;-141.38;72.75
6853;BME280;3465;42.144;24.722;2023-11-21T07:53:26;49203.13;;;-141.38;72.54
6853;BME280;3465;42.144;24.722;2023-11-21T07:55:54;49181.66;;;-141.38;73.15
6853;BME280;3465;42.144;24.722;2023-11-21T07:58:20;49160.19;;;-141.38;73.85
6853;BME280;3465;42.144;24.722;2023-11-21T08:00:45;49195.31;;;-141.38;74.96
6853;BME280;3465;42.144;24.722;2023-11-21T08:03:13;49230.44;;;-141.38;76.03
6853;BME280;3465;42.144;24.722;2023-11-21T08:05:39;49271.44;;;-141.38;76.70
6853;BME280;3465;42.144;24.722;2023-11-21T08:08:04;49248.00;;;-141.38;76.06
6853;BME280;3465;42.144;24.722;2023-11-21T08:10:30;49253.88;;;-141.38;75.77
6853;BME280;3465;42.144;24.722;2023-11-21T08:12:56;49681.41;;;-141.38;74.98
6853;BME280;3465;42.144;24.722;2023-11-21T08:15:21;49234.34;;;-141.38;74.71
6853;BME280;3465;42.144;24.722;2023-11-21T08:17:47;49277.28;;;-141.38;74.93
6853;BME280;3465;42.144;24.722;2023-11-21T08:20:13;49265.59;;;-141.38;74.79
6853;BME280;3465;42.144;24.722;2023-11-21T08:22:42;49265.59;;;-141.38;75.21
6853;BME280;3465;42.144;24.722;2023-11-21T08:25:08;49275.34;;;-141.38;75.36
6853;BME280;3465;42.144;24.722;2023-11-21T08:27:34;49281.19;;;-141.38;75.02
6853;BME280;3465;42.144;24.722;2023-11-21T08:30:00;49281.19;;;-141.38;75.13
6853;BME280;3465;42.144;24.722;2023-11-21T08:32:26;49277.28;;;-141.38;75.15
6853;BME280;3465;42.144;24.722;2023-11-21T08:34:51;49269.50;;;-141.38;74.21
6853;BME280;3465;42.144;24.722;2023-11-21T08:37:17;49271.44;;;-141.38;74.36
6853;BME280;3465;42.144;24.722;2023-11-21T08:39:47;49261.69;;;-141.38;73.09
6853;BME280;3465;42.144;24.722;2023-11-21T08:42:13;49228.50;;;-141.38;72.25
6853;BME280;3465;42.144;24.722;2023-11-21T08:44:39;49205.06;;;-141.38;72.55
6853;BME280;3465;42.144;24.722;2023-11-21T08:47:05;49222.63;;;-141.38;72.97
6853;BME280;3465;42.144;24.722;2023-11-21T08:49:31;49195.31;;;-141.38;73.72
6853;BME280;3465;42.144;24.722;2023-11-21T08:51:56;49253.88;;;-141.38;73.26
6853;BME280;3465;42.144;24.722;2023-11-21T08:54:25;49234.34;;;-141.38;72.55
6853;BME280;3465;42.144;24.722;2023-11-21T08:56:51;49249.97;;;-141.38;72.35
6853;BME280;3465;42.144;24.722;2023-11-21T08:59:17;49230.44;;;-141.38;72.43
6853;BME280;3465;42.144;24.722;2023-11-21T09:01:42;49253.88;;;-141.38;72.00
6853;BME280;3465;42.144;24.722;2023-11-21T09:04:08;49201.16;;;-141.38;70.68
6853;BME280;3465;42.144;24.722;2023-11-21T09:06:33;49210.94;;;-141.38;69.94
6853;BME280;3465;42.144;24.722;2023-11-21T09:08:58;49214.84;;;-141.38;69.93
6853;BME280;3465;42.144;24.722;2023-11-21T09:11:24;49216.78;;;-141.38;69.82
6853;BME280;3465;42.144;24.722;2023-11-21T09:13:52;49195.31;;;-141.38;69.07
6853;BME280;3465;42.144;24.722;2023-11-21T09:16:17;49203.13;;;-141.38;68.24
6853;BME280;3465;42.144;24.722;2023-11-21T09:18:43;49222.63;;;-141.38;67.15
6853;BME280;3465;42.144;24.722;2023-11-21T09:21:08;49175.78;;;-141.38;66.58
6853;BME280;3465;42.144;24.722;2023-11-21T09:23:35;49160.19;;;-141.38;66.12
6853;BME280;3465;42.144;24.722;2023-11-21T09:26:00;49189.47;;;-141.38;65.65
6853;BME280;3465;42.144;24.722;2023-11-21T09:28:27;49169.94;;;-141.38;65.03
6853;BME280;3465;42.144;24.722;2023-11-21T09:30:53;49130.91;;;-141.38;64.72
6853;BME280;3465;42.144;24.722;2023-11-21T09:33:19;49205.06;;;-141.38;64.16
6853;BME280;3465;42.144;24.722;2023-11-21T09:35:44;49150.41;;;-141.38;63.73
6853;BME280;3465;42.144;24.722;2023-11-21T09:38:10;49113.31;;;-141.38;63.08
6853;BME280;3465;42.144;24.722;2023-11-21T09:40:36;49113.31;;;-141.38;63.48
6853;BME280;3465;42.144;24.722;2023-11-21T09:43:06;49125.03;;;-141.38;62.88
6853;BME280;3465;42.144;24.722;2023-11-21T09:45:35;49121.13;;;-141.38;61.87
6853;BME280;3465;42.144;24.722;2023-11-21T09:48:01;49087.97;;;-141.38;62.26
6853;BME280;3465;42.144;24.722;2023-11-21T09:50:28;49097.72;;;-141.38;63.14
6853;BME280;3465;42.144;24.722;2023-11-21T09:55:48;49002.06;;;-141.38;61.39
6853;BME280;3465;42.144;24.722;2023-11-21T09:58:15;49031.34;;;-141.38;60.76
6853;BME280;3465;42.144;24.722;2023-11-21T10:00:45;49027.44;;;-141.38;60.99
6853;BME280;3465;42.144;24.722;2023-11-21T10:03:11;48992.31;;;-141.38;60.46
6853;BME280;3465;42.144;24.722;2023-11-21T10:05:37;49048.91;;;-141.38;60.37
6853;BME280;3465;42.144;24.722;2023-11-21T10:08:08;49031.34;;;-141.38;59.89
6853;BME280;3465;42.144;24.722;2023-11-21T10:10:36;49025.50;;;-141.38;58.55
6853;BME280;3465;42.144;24.722;2023-11-21T10:13:03;49035.25;;;-141.38;58.87
6853;BME280;3465;42.144;24.722;2023-11-21T10:15:36;48982.56;;;-141.38;59.28
6853;BME280;3465;42.144;24.722;2023-11-21T10:18:03;48974.75;;;-141.38;60.03
6853;BME280;3465;42.144;24.722;2023-11-21T10:20:29;48972.78;;;-141.38;60.21
6853;BME280;3465;42.144;24.722;2023-11-21T10:22:55;48988.41;;;-141.38;59.42
6853;BME280;3465;42.144;24.722;2023-11-21T10:25:22;48996.22;;;-141.38;57.96
6853;BME280;3465;42.144;24.722;2023-11-21T10:27:49;48992.31;;;-141.38;56.44
6853;BME280;3465;42.144;24.722;2023-11-21T10:30:17;48996.22;;;-141.38;55.80
6853;BME280;3465;42.144;24.722;2023-11-21T10:32:43;48982.56;;;-141.38;55.34
6853;BME280;3465;42.144;24.722;2023-11-21T10:35:09;49056.72;;;-141.38;51.72
6853;BME280;3465;42.144;24.722;2023-11-21T10:37:40;49070.38;;;-141.38;47.93
6853;BME280;3465;42.144;24.722;2023-11-21T10:40:10;49074.28;;;-141.38;46.14
6853;BME280;3465;42.144;24.722;2023-11-21T10:42:39;49011.81;;;-141.38;44.68
6853;BME280;3465;42.144;24.722;2023-11-21T10:45:08;48914.25;;;-141.38;44.16
6853;BME280;3465;42.144;24.722;2023-11-21T10:47:41;48855.69;;;-141.38;45.12
6853;BME280;3465;42.144;24.722;2023-11-21T10:50:07;48820.56;;;-141.38;45.95
6853;BME280;3465;42.144;24.722;2023-11-21T10:52:41;48890.81;;;-141.38;46.38
6853;BME280;3465;42.144;24.722;2023-11-21T10:55:19;48791.28;;;-141.38;46.86
6853;BME280;3465;42.144;24.722;2023-11-21T10:57:52;48785.41;;;-141.38;47.45
6853;BME280;3465;42.144;24.722;2023-11-21T11:00:19;48752.25;;;-141.38;47.56
6853;BME280;3465;42.144;24.722;2023-11-21T11:02:49;48724.91;;;-141.38;48.30
6853;BME280;3465;42.144;24.722;2023-11-21T11:05:19;48742.47;;;-141.38;49.37
6853;BME280;3465;42.144;24.722;2023-11-21T11:07:48;48728.81;;;-141.38;49.94
6853;BME280;3465;42.144;24.722;2023-11-21T11:10:18;48758.09;;;-141.38;50.48
6853;BME280;3465;42.144;24.722;2023-11-21T11:12:47;48738.56;;;-141.38;50.37
6853;BME280;3465;42.144;24.722;2023-11-21T11:15:12;48722.97;;;-141.38;50.43
6853;BME280;3465;42.144;24.722;2023-11-21T11:17:40;48812.75;;;-141.38;51.11
6853;BME280;3465;42.144;24.722;2023-11-21T11:20:08;48722.97;;;-141.38;51.38
6853;BME280;3465;42.144;24.722;2023-11-21T11:22:50;48719.06;;;-141.38;51.52
6853;BME280;3465;42.144;24.722;2023-11-21T11:25:37;48656.59;;;-141.38;50.85
6853;BME280;3465;42.144;24.722;2023-11-21T11:28:29;48637.09;;;-141.38;50.95
6853;BME280;3465;42.144;24.722;2023-11-21T11:31:08;48654.66;;;-141.38;52.14
6853;BME280;3465;42.144;24.722;2023-11-21T11:34:06;48641.00;;;-141.38;52.63
6853;BME280;3465;42.144;24.722;2023-11-21T11:36:43;48672.22;;;-141.38;52.99
6853;BME280;3465;42.144;24.722;2023-11-21T11:39:41;48652.69;;;-141.38;53.24
6853;BME280;3465;42.144;24.722;2023-11-21T11:42:15;48627.31;;;-141.38;53.82
6853;BME280;3465;42.144;24.722;2023-11-21T11:47:27;48631.22;;;-141.38;54.83
6853;BME280;3465;42.144;24.722;2023-11-21T11:50:08;48629.28;;;-141.38;55.28
6853;BME280;3465;42.144;24.722;2023-11-21T11:55:16;48637.09;;;-141.38;56.13
6853;BME280;3465;42.144;24.722;2023-11-21T11:57:44;48621.47;;;-141.38;56.42
6853;BME280;3465;42.144;24.722;2023-11-21T12:00:13;48633.19;;;-141.38;56.24
6853;BME280;3465;42.144;24.722;2023-11-21T12:02:44;48633.19;;;-141.38;56.29
6853;BME280;3465;42.144;24.722;2023-11-21T12:05:11;48648.78;;;-141.38;56.18
6853;BME280;3465;42.144;24.722;2023-11-21T12:07:51;48639.03;;;-141.38;56.78
6853;BME280;3465;42.144;24.722;2023-11-21T12:10:29;48633.19;;;-141.38;57.04
6853;BME280;3465;42.144;24.722;2023-11-21T12:12:58;48650.75;;;-141.38;56.95
6853;BME280;3465;42.144;24.722;2023-11-21T12:15:24;48648.78;;;-141.38;56.83
6853;BME280;3465;42.144;24.722;2023-11-21T12:17:51;48668.31;;;-141.38;56.65
6853;BME280;3465;42.144;24.722;2023-11-21T12:20:21;48668.31;;;-141.38;56.89
6853;BME280;3465;42.144;24.722;2023-11-21T12:22:49;48691.72;;;-141.38;57.02
6853;BME280;3465;42.144;24.722;2023-11-21T12:25:16;48765.91;;;-141.38;57.29
6853;BME280;3465;42.144;24.722;2023-11-21T12:28:02;48705.41;;;-141.38;57.51
6853;BME280;3465;42.144;24.722;2023-11-21T12:30:32;48672.22;;;-141.38;57.79
6853;BME280;3465;42.144;24.722;2023-11-21T12:33:01;48678.06;;;-141.38;56.71
6853;BME280;3465;42.144;24.722;2023-11-21T12:35:30;48691.72;;;-141.38;56.04
6853;BME280;3465;42.144;24.722;2023-11-21T12:37:59;48680.03;;;-141.38;55.96
6853;BME280;3465;42.144;24.722;2023-11-21T12:40:25;48660.50;;;-141.38;56.21
6853;BME280;3465;42.144;24.722;2023-11-21T12:42:53;48701.50;;;-141.38;55.74
6853;BME280;3465;42.144;24.722;2023-11-21T12:45:20;48598.06;;;-141.38;56.13
6853;BME280;3465;42.144;24.722;2023-11-21T12:47:50;48699.53;;;-141.38;55.35
6853;BME280;3465;42.144;24.722;2023-11-21T12:50:23;48676.13;;;-141.38;55.29
6853;BME280;3465;42.144;24.722;2023-11-21T12:52:51;48685.88;;;-141.38;55.24
6853;BME280;3465;42.144;24.722;2023-11-21T12:55:20;48687.84;;;-141.38;54.97
6853;BME280;3465;42.144;24.722;2023-11-21T12:57:51;48681.97;;;-141.38;54.80
6853;BME280;3465;42.144;24.722;2023-11-21T13:00:18;48687.84;;;-141.38;55.17